sensor_id;sensor_type;location;lat;lon;timestamp;P1;durP1;ratioP1;P2;durP2;ratioP2
82352;SDS011;71954;47.430;18.920;2024-03-23T00:53:14;19.98;;;9.98;;
82352;SDS011;71954;47.430;18.920;2024-03-23T00:55:43;17.85;;;10.68;;
82352;SDS011;71954;47.430;18.920;2024-03-23T00:58:08;21.98;;;11.88;;
82352;SDS011;71954;47.430;18.920;2024-03-23T01:00:34;18.83;;;12.43;;
82352;SDS011;71954;47.430;18.920;2024-03-23T01:03:00;19.23;;;10.45;;
82352;SDS011;71954;47.430;18.920;2024-03-23T01:05:25;20.42;;;10.75;;
82352;SDS011;71954;47.430;18.920;2024-03-23T01:07:51;18.70;;;10.63;;
82352;SDS011;71954;47.430;18.920;2024-03-23T01:10:16;20.00;;;10.20;;
82352;SDS011;71954;47.430;18.920;2024-03-23T01:12:42;19.17;;;8.77;;
82352;SDS011;71954;47.430;18.920;2024-03-23T01:15:08;17.40;;;9.13;;
82352;SDS011;71954;47.430;18.920;2024-03-23T01:17:34;19.58;;;10.48;;
82352;SDS011;71954;47.430;18.920;2024-03-23T01:19:59;19.65;;;10.52;;
82352;SDS011;71954;47.430;18.920;2024-03-23T01:22:25;17.67;;;8.55;;
82352;SDS011;71954;47.430;18.920;2024-03-23T01:24:50;18.02;;;8.95;;
82352;SDS011;71954;47.430;18.920;2024-03-23T01:27:17;15.73;;;9.30;;
82352;SDS011;71954;47.430;18.920;2024-03-23T01:29:43;16.58;;;9.52;;
82352;SDS011;71954;47.430;18.920;2024-03-23T01:32:09;14.35;;;8.55;;
82352;SDS011;71954;47.430;18.920;2024-03-23T01:34:35;16.52;;;9.82;;
82352;SDS011;71954;47.430;18.920;2024-03-23T01:37:00;17.75;;;8.63;;
82352;SDS011;71954;47.430;18.920;2024-03-23T01:39:26;16.27;;;8.50;;
82352;SDS011;71954;47.430;18.920;2024-03-23T01:41:52;15.43;;;9.32;;
82352;SDS011;71954;47.430;18.920;2024-03-23T01:44:17;17.35;;;8.60;;
82352;SDS011;71954;47.430;18.920;2024-03-23T01:46:43;19.38;;;10.75;;
82352;SDS011;71954;47.430;18.920;2024-03-23T01:49:09;21.33;;;11.05;;
82352;SDS011;71954;47.430;18.920;2024-03-23T01:51:36;20.27;;;10.68;;
82352;SDS011;71954;47.430;18.920;2024-03-23T01:54:02;18.77;;;11.40;;
82352;SDS011;71954;47.430;18.920;2024-03-23T01:56:32;18.88;;;10.32;;
82352;SDS011;71954;47.430;18.920;2024-03-23T01:59:02;18.58;;;10.27;;
82352;SDS011;71954;47.430;18.920;2024-03-23T02:01:28;18.55;;;9.25;;
82352;SDS011;71954;47.430;18.920;2024-03-23T02:03:55;19.15;;;10.07;;
82352;SDS011;71954;47.430;18.920;2024-03-23T02:06:20;16.65;;;9.02;;
82352;SDS011;71954;47.430;18.920;2024-03-23T02:08:47;18.98;;;10.02;;
82352;SDS011;71954;47.430;18.920;2024-03-23T02:11:13;17.08;;;11.23;;
82352;SDS011;71954;47.430;18.920;2024-03-23T02:13:39;17.15;;;10.45;;
82352;SDS011;71954;47.430;18.920;2024-03-23T02:16:05;20.42;;;11.02;;
82352;SDS011;71954;47.430;18.920;2024-03-23T02:18:32;19.90;;;10.18;;
82352;SDS011;71954;47.430;18.920;2024-03-23T02:20:58;19.83;;;11.15;;
82352;SDS011;71954;47.430;18.920;2024-03-23T02:23:23;20.63;;;10.70;;
82352;SDS011;71954;47.430;18.920;2024-03-23T02:25:50;18.65;;;9.63;;
82352;SDS011;71954;47.430;18.920;2024-03-23T02:28:16;19.52;;;10.63;;
82352;SDS011;71954;47.430;18.920;2024-03-23T02:30:42;18.58;;;10.35;;
82352;SDS011;71954;47.430;18.920;2024-03-23T02:33:08;19.30;;;11.45;;
82352;SDS011;71954;47.430;18.920;2024-03-23T02:35:34;20.10;;;11.65;;
82352;SDS011;71954;47.430;18.920;2024-03-23T02:37:59;21.45;;;11.32;;
82352;SDS011;71954;47.430;18.920;2024-03-23T02:40:25;19.95;;;12.10;;
82352;SDS011;71954;47.430;18.920;2024-03-23T02:42:53;19.60;;;10.82;;
82352;SDS011;71954;47.430;18.920;2024-03-23T02:45:19;21.67;;;12.25;;
82352;SDS011;71954;47.430;18.920;2024-03-23T02:47:45;18.25;;;11.45;;
82352;SDS011;71954;47.430;18.920;2024-03-23T02:50:10;21.83;;;12.32;;
82352;SDS011;71954;47.430;18.920;2024-03-23T02:52:36;18.77;;;9.63;;
82352;SDS011;71954;47.430;18.920;2024-03-23T02:55:02;21.75;;;12.63;;
82352;SDS011;71954;47.430;18.920;2024-03-23T02:57:28;20.38;;;12.63;;
82352;SDS011;71954;47.430;18.920;2024-03-23T02:59:54;23.67;;;13.68;;
82352;SDS011;71954;47.430;18.920;2024-03-23T03:02:20;22.48;;;12.02;;
82352;SDS011;71954;47.430;18.920;2024-03-23T03:04:46;19.88;;;12.20;;
82352;SDS011;71954;47.430;18.920;2024-03-23T03:07:12;24.80;;;13.35;;
82352;SDS011;71954;47.430;18.920;2024-03-23T03:09:37;20.70;;;12.10;;
82352;SDS011;71954;47.430;18.920;2024-03-23T03:12:07;20.65;;;10.55;;
82352;SDS011;71954;47.430;18.920;2024-03-23T03:14:33;21.45;;;12.18;;
82352;SDS011;71954;47.430;18.920;2024-03-23T03:16:59;19.15;;;10.70;;
82352;SDS011;71954;47.430;18.920;2024-03-23T03:19:25;22.98;;;12.82;;
82352;SDS011;71954;47.430;18.920;2024-03-23T03:21:51;22.00;;;11.93;;
82352;SDS011;71954;47.430;18.920;2024-03-23T03:24:16;22.48;;;13.00;;
82352;SDS011;71954;47.430;18.920;2024-03-23T03:26:42;18.38;;;12.27;;
82352;SDS011;71954;47.430;18.920;2024-03-23T03:29:08;21.77;;;11.88;;
82352;SDS011;71954;47.430;18.920;2024-03-23T03:31:34;21.08;;;12.20;;
82352;SDS011;71954;47.430;18.920;2024-03-23T03:33:59;19.85;;;12.13;;
82352;SDS011;71954;47.430;18.920;2024-03-23T03:36:25;23.52;;;13.10;;
82352;SDS011;71954;47.430;18.920;2024-03-23T03:38:50;19.45;;;11.63;;
82352;SDS011;71954;47.430;18.920;2024-03-23T03:41:16;22.10;;;12.60;;
82352;SDS011;71954;47.430;18.920;2024-03-23T03:43:42;18.83;;;10.65;;
82352;SDS011;71954;47.430;18.920;2024-03-23T03:46:07;21.50;;;12.13;;
82352;SDS011;71954;47.430;18.920;2024-03-23T03:48:33;22.05;;;12.57;;
82352;SDS011;71954;47.430;18.920;2024-03-23T03:50:59;20.17;;;12.73;;
82352;SDS011;71954;47.430;18.920;2024-03-23T03:53:25;18.95;;;11.77;;
82352;SDS011;71954;47.430;18.920;2024-03-23T03:55:51;19.80;;;10.52;;
82352;SDS011;71954;47.430;18.920;2024-03-23T03:58:17;18.73;;;10.32;;
82352;SDS011;71954;47.430;18.920;2024-03-23T04:00:43;19.40;;;10.77;;
82352;SDS011;71954;47.430;18.920;2024-03-23T04:03:08;22.15;;;11.38;;
82352;SDS011;71954;47.430;18.920;2024-03-23T04:05:34;18.65;;;9.82;;
82352;SDS011;71954;47.430;18.920;2024-03-23T04:08:00;16.48;;;9.82;;
82352;SDS011;71954;47.430;18.920;2024-03-23T04:10:25;19.63;;;9.15;;
82352;SDS011;71954;47.430;18.920;2024-03-23T04:12:52;21.45;;;11.70;;
82352;SDS011;71954;47.430;18.920;2024-03-23T04:15:18;18.20;;;10.68;;
82352;SDS011;71954;47.430;18.920;2024-03-23T04:17:44;18.35;;;9.43;;
82352;SDS011;71954;47.430;18.920;2024-03-23T04:20:10;17.27;;;8.65;;
82352;SDS011;71954;47.430;18.920;2024-03-23T04:22:37;17.52;;;9.13;;
82352;SDS011;71954;47.430;18.920;2024-03-23T04:25:02;15.30;;;9.13;;
82352;SDS011;71954;47.430;18.920;2024-03-23T04:27:32;16.83;;;10.00;;
82352;SDS011;71954;47.430;18.920;2024-03-23T04:30:01;16.33;;;10.05;;
82352;SDS011;71954;47.430;18.920;2024-03-23T04:32:28;16.15;;;9.05;;
82352;SDS011;71954;47.430;18.920;2024-03-23T04:34:54;16.38;;;10.38;;
82352;SDS011;71954;47.430;18.920;2024-03-23T04:37:20;18.45;;;8.80;;
82352;SDS011;71954;47.430;18.920;2024-03-23T04:39:46;20.17;;;10.50;;
82352;SDS011;71954;47.430;18.920;2024-03-23T04:42:14;18.15;;;9.82;;
82352;SDS011;71954;47.430;18.920;2024-03-23T04:44:40;17.80;;;10.02;;
82352;SDS011;71954;47.430;18.920;2024-03-23T04:47:06;16.58;;;8.48;;
82352;SDS011;71954;47.430;18.920;2024-03-23T04:49:32;17.70;;;9.20;;
82352;SDS011;71954;47.430;18.920;2024-03-23T04:51:57;17.67;;;9.45;;
82352;SDS011;71954;47.430;18.920;2024-03-23T04:54:23;16.40;;;10.15;;
82352;SDS011;71954;47.430;18.920;2024-03-23T04:56:49;18.08;;;10.48;;
82352;SDS011;71954;47.430;18.920;2024-03-23T04:59:15;17.65;;;9.25;;
82352;SDS011;71954;47.430;18.920;2024-03-23T05:01:41;15.18;;;8.40;;
82352;SDS011;71954;47.430;18.920;2024-03-23T05:04:07;16.02;;;10.60;;
82352;SDS011;71954;47.430;18.920;2024-03-23T05:06:33;18.90;;;9.88;;
82352;SDS011;71954;47.430;18.920;2024-03-23T05:09:00;18.38;;;11.13;;
82352;SDS011;71954;47.430;18.920;2024-03-23T05:11:31;19.45;;;10.55;;
82352;SDS011;71954;47.430;18.920;2024-03-23T05:13:57;17.63;;;10.75;;
82352;SDS011;71954;47.430;18.920;2024-03-23T05:16:23;18.92;;;9.90;;
82352;SDS011;71954;47.430;18.920;2024-03-23T05:18:48;19.88;;;10.02;;
82352;SDS011;71954;47.430;18.920;2024-03-23T05:21:14;22.33;;;12.30;;
82352;SDS011;71954;47.430;18.920;2024-03-23T05:23:39;18.38;;;11.18;;
82352;SDS011;71954;47.430;18.920;2024-03-23T05:26:05;17.25;;;9.60;;
82352;SDS011;71954;47.430;18.920;2024-03-23T05:28:31;20.92;;;11.73;;
82352;SDS011;71954;47.430;18.920;2024-03-23T05:30:57;18.77;;;10.73;;
82352;SDS011;71954;47.430;18.920;2024-03-23T05:33:22;22.08;;;10.40;;
82352;SDS011;71954;47.430;18.920;2024-03-23T05:35:56;21.80;;;11.52;;
82352;SDS011;71954;47.430;18.920;2024-03-23T05:38:22;17.55;;;11.63;;
82352;SDS011;71954;47.430;18.920;2024-03-23T05:40:55;19.23;;;10.48;;
82352;SDS011;71954;47.430;18.920;2024-03-23T05:43:21;20.70;;;11.68;;
82352;SDS011;71954;47.430;18.920;2024-03-23T05:45:56;20.55;;;12.00;;
82352;SDS011;71954;47.430;18.920;2024-03-23T05:48:23;20.83;;;11.85;;
82352;SDS011;71954;47.430;18.920;2024-03-23T05:50:50;19.65;;;12.20;;
82352;SDS011;71954;47.430;18.920;2024-03-23T05:53:16;20.13;;;12.40;;
82352;SDS011;71954;47.430;18.920;2024-03-23T05:55:42;18.63;;;11.43;;
82352;SDS011;71954;47.430;18.920;2024-03-23T05:58:07;21.08;;;11.20;;
82352;SDS011;71954;47.430;18.920;2024-03-23T06:00:33;18.20;;;11.20;;
82352;SDS011;71954;47.430;18.920;2024-03-23T06:02:59;20.85;;;10.50;;
82352;SDS011;71954;47.430;18.920;2024-03-23T06:05:25;20.33;;;10.88;;
82352;SDS011;71954;47.430;18.920;2024-03-23T06:07:50;19.52;;;10.82;;
82352;SDS011;71954;47.430;18.920;2024-03-23T06:10:16;16.77;;;9.63;;
82352;SDS011;71954;47.430;18.920;2024-03-23T06:12:42;20.17;;;12.10;;
82352;SDS011;71954;47.430;18.920;2024-03-23T06:15:07;19.05;;;10.40;;
82352;SDS011;71954;47.430;18.920;2024-03-23T06:17:36;20.52;;;11.25;;
82352;SDS011;71954;47.430;18.920;2024-03-23T06:20:02;16.38;;;10.68;;
82352;SDS011;71954;47.430;18.920;2024-03-23T06:22:29;21.25;;;11.55;;
82352;SDS011;71954;47.430;18.920;2024-03-23T06:24:54;19.65;;;11.90;;
82352;SDS011;71954;47.430;18.920;2024-03-23T06:27:20;17.67;;;10.25;;
82352;SDS011;71954;47.430;18.920;2024-03-23T06:29:46;20.20;;;12.80;;
82352;SDS011;71954;47.430;18.920;2024-03-23T06:32:11;20.67;;;10.45;;
82352;SDS011;71954;47.430;18.920;2024-03-23T06:34:37;18.15;;;11.05;;
82352;SDS011;71954;47.430;18.920;2024-03-23T06:37:02;16.25;;;11.30;;
82352;SDS011;71954;47.430;18.920;2024-03-23T06:39:28;17.50;;;11.68;;
82352;SDS011;71954;47.430;18.920;2024-03-23T06:41:54;18.42;;;12.85;;
82352;SDS011;71954;47.430;18.920;2024-03-23T06:44:20;20.92;;;11.88;;
82352;SDS011;71954;47.430;18.920;2024-03-23T06:46:46;22.75;;;13.15;;
82352;SDS011;71954;47.430;18.920;2024-03-23T06:49:12;19.58;;;11.93;;
82352;SDS011;71954;47.430;18.920;2024-03-23T06:51:38;20.38;;;11.13;;
82352;SDS011;71954;47.430;18.920;2024-03-23T06:54:04;18.70;;;10.07;;
82352;SDS011;71954;47.430;18.920;2024-03-23T06:56:30;19.40;;;12.27;;
82352;SDS011;71954;47.430;18.920;2024-03-23T06:58:56;19.52;;;10.20;;
82352;SDS011;71954;47.430;18.920;2024-03-23T07:01:22;17.83;;;11.23;;
82352;SDS011;71954;47.430;18.920;2024-03-23T07:03:48;17.52;;;11.32;;
82352;SDS011;71954;47.430;18.920;2024-03-23T07:06:14;19.35;;;11.30;;
82352;SDS011;71954;47.430;18.920;2024-03-23T07:08:39;18.30;;;11.40;;
82352;SDS011;71954;47.430;18.920;2024-03-23T07:11:05;21.83;;;12.15;;
82352;SDS011;71954;47.430;18.920;2024-03-23T07:13:31;21.02;;;11.00;;
82352;SDS011;71954;47.430;18.920;2024-03-23T07:15:56;16.13;;;11.70;;
82352;SDS011;71954;47.430;18.920;2024-03-23T07:18:23;21.92;;;13.00;;
82352;SDS011;71954;47.430;18.920;2024-03-23T07:20:53;18.20;;;11.73;;
82352;SDS011;71954;47.430;18.920;2024-03-23T07:23:19;17.17;;;12.00;;
82352;SDS011;71954;47.430;18.920;2024-03-23T07:25:45;17.17;;;11.30;;
82352;SDS011;71954;47.430;18.920;2024-03-23T07:28:10;19.08;;;9.60;;
82352;SDS011;71954;47.430;18.920;2024-03-23T07:30:36;20.23;;;10.40;;
82352;SDS011;71954;47.430;18.920;2024-03-23T07:33:02;22.02;;;11.40;;
82352;SDS011;71954;47.430;18.920;2024-03-23T07:35:27;20.23;;;11.90;;
82352;SDS011;71954;47.430;18.920;2024-03-23T07:37:53;21.17;;;13.15;;
82352;SDS011;71954;47.430;18.920;2024-03-23T07:40:18;18.42;;;12.40;;
82352;SDS011;71954;47.430;18.920;2024-03-23T07:42:44;20.20;;;12.93;;
82352;SDS011;71954;47.430;18.920;2024-03-23T07:45:10;19.52;;;11.60;;
82352;SDS011;71954;47.430;18.920;2024-03-23T07:47:35;19.30;;;12.23;;
82352;SDS011;71954;47.430;18.920;2024-03-23T07:50:01;20.90;;;13.27;;
82352;SDS011;71954;47.430;18.920;2024-03-23T07:52:30;23.95;;;12.52;;
82352;SDS011;71954;47.430;18.920;2024-03-23T07:54:56;23.52;;;13.65;;
82352;SDS011;71954;47.430;18.920;2024-03-23T07:57:21;19.13;;;11.77;;
82352;SDS011;71954;47.430;18.920;2024-03-23T07:59:47;20.88;;;12.25;;
82352;SDS011;71954;47.430;18.920;2024-03-23T08:02:12;27.80;;;14.00;;
82352;SDS011;71954;47.430;18.920;2024-03-23T08:04:38;24.30;;;13.57;;
82352;SDS011;71954;47.430;18.920;2024-03-23T08:07:04;21.27;;;12.15;;
82352;SDS011;71954;47.430;18.920;2024-03-23T08:09:29;22.08;;;13.25;;
82352;SDS011;71954;47.430;18.920;2024-03-23T08:11:55;22.45;;;13.88;;
82352;SDS011;71954;47.430;18.920;2024-03-23T08:14:20;22.73;;;12.88;;
82352;SDS011;71954;47.430;18.920;2024-03-23T08:16:46;22.85;;;13.43;;
82352;SDS011;71954;47.430;18.920;2024-03-23T08:19:14;21.30;;;13.65;;
82352;SDS011;71954;47.430;18.920;2024-03-23T08:21:40;18.90;;;11.77;;
82352;SDS011;71954;47.430;18.920;2024-03-23T08:24:06;23.67;;;12.70;;
82352;SDS011;71954;47.430;18.920;2024-03-23T08:26:32;23.52;;;14.82;;
82352;SDS011;71954;47.430;18.920;2024-03-23T08:28:58;21.98;;;12.93;;
82352;SDS011;71954;47.430;18.920;2024-03-23T08:31:23;16.95;;;11.85;;
82352;SDS011;71954;47.430;18.920;2024-03-23T08:33:49;19.52;;;11.55;;
82352;SDS011;71954;47.430;18.920;2024-03-23T08:36:15;19.20;;;12.30;;
82352;SDS011;71954;47.430;18.920;2024-03-23T08:38:40;19.67;;;11.88;;
82352;SDS011;71954;47.430;18.920;2024-03-23T08:41:09;16.52;;;10.70;;
82352;SDS011;71954;47.430;18.920;2024-03-23T08:43:36;15.98;;;8.70;;
82352;SDS011;71954;47.430;18.920;2024-03-23T08:46:11;14.50;;;9.55;;
82352;SDS011;71954;47.430;18.920;2024-03-23T08:48:38;14.85;;;9.10;;
82352;SDS011;71954;47.430;18.920;2024-03-23T08:51:11;15.77;;;9.57;;
82352;SDS011;71954;47.430;18.920;2024-03-23T08:53:40;14.20;;;8.30;;
82352;SDS011;71954;47.430;18.920;2024-03-23T08:56:07;16.85;;;8.95;;
82352;SDS011;71954;47.430;18.920;2024-03-23T09:01:04;13.25;;;8.93;;
82352;SDS011;71954;47.430;18.920;2024-03-23T09:03:32;13.50;;;9.88;;
82352;SDS011;71954;47.430;18.920;2024-03-23T09:05:58;15.65;;;10.48;;
82352;SDS011;71954;47.430;18.920;2024-03-23T09:08:24;13.68;;;9.32;;
82352;SDS011;71954;47.430;18.920;2024-03-23T09:10:51;13.45;;;8.25;;
82352;SDS011;71954;47.430;18.920;2024-03-23T09:13:17;15.23;;;9.05;;
82352;SDS011;71954;47.430;18.920;2024-03-23T09:15:49;12.63;;;8.15;;
82352;SDS011;71954;47.430;18.920;2024-03-23T09:23:07;12.38;;;6.95;;
82352;SDS011;71954;47.430;18.920;2024-03-23T09:25:39;13.75;;;7.03;;
82352;SDS011;71954;47.430;18.920;2024-03-23T09:28:06;11.35;;;7.85;;
82352;SDS011;71954;47.430;18.920;2024-03-23T09:30:34;11.07;;;5.63;;
82352;SDS011;71954;47.430;18.920;2024-03-23T09:33:01;11.52;;;6.55;;
82352;SDS011;71954;47.430;18.920;2024-03-23T09:37:53;9.95;;;6.57;;
82352;SDS011;71954;47.430;18.920;2024-03-23T09:40:19;10.15;;;6.07;;
82352;SDS011;71954;47.430;18.920;2024-03-23T09:42:51;9.32;;;5.65;;
82352;SDS011;71954;47.430;18.920;2024-03-23T09:45:20;9.13;;;6.80;;
82352;SDS011;71954;47.430;18.920;2024-03-23T09:47:47;9.07;;;5.95;;
82352;SDS011;71954;47.430;18.920;2024-03-23T09:50:13;9.55;;;6.45;;
82352;SDS011;71954;47.430;18.920;2024-03-23T09:52:39;7.82;;;5.30;;
82352;SDS011;71954;47.430;18.920;2024-03-23T09:55:07;9.95;;;6.68;;
82352;SDS011;71954;47.430;18.920;2024-03-23T09:57:34;9.77;;;5.32;;
82352;SDS011;71954;47.430;18.920;2024-03-23T09:59:59;10.02;;;6.32;;
82352;SDS011;71954;47.430;18.920;2024-03-23T10:02:25;10.85;;;7.03;;
82352;SDS011;71954;47.430;18.920;2024-03-23T10:04:51;9.40;;;6.25;;
82352;SDS011;71954;47.430;18.920;2024-03-23T10:07:20;10.07;;;6.40;;
82352;SDS011;71954;47.430;18.920;2024-03-23T10:09:49;9.25;;;7.03;;
82352;SDS011;71954;47.430;18.920;2024-03-23T10:12:19;10.02;;;6.43;;
82352;SDS011;71954;47.430;18.920;2024-03-23T10:14:45;10.00;;;6.22;;
82352;SDS011;71954;47.430;18.920;2024-03-23T10:17:14;9.98;;;6.55;;
82352;SDS011;71954;47.430;18.920;2024-03-23T10:19:45;10.93;;;6.53;;
82352;SDS011;71954;47.430;18.920;2024-03-23T10:22:16;10.15;;;6.07;;
82352;SDS011;71954;47.430;18.920;2024-03-23T10:24:43;10.23;;;5.13;;
82352;SDS011;71954;47.430;18.920;2024-03-23T10:27:09;9.30;;;5.93;;
82352;SDS011;71954;47.430;18.920;2024-03-23T10:29:40;8.43;;;4.57;;
82352;SDS011;71954;47.430;18.920;2024-03-23T10:32:09;9.40;;;4.68;;
82352;SDS011;71954;47.430;18.920;2024-03-23T10:34:36;9.25;;;5.05;;
82352;SDS011;71954;47.430;18.920;2024-03-23T10:37:03;8.55;;;4.25;;
82352;SDS011;71954;47.430;18.920;2024-03-23T10:39:30;8.35;;;5.00;;
82352;SDS011;71954;47.430;18.920;2024-03-23T10:41:59;9.45;;;6.10;;
82352;SDS011;71954;47.430;18.920;2024-03-23T10:44:27;6.30;;;4.13;;
82352;SDS011;71954;47.430;18.920;2024-03-23T10:46:55;8.88;;;4.20;;
82352;SDS011;71954;47.430;18.920;2024-03-23T10:49:26;9.07;;;4.65;;
82352;SDS011;71954;47.430;18.920;2024-03-23T10:51:55;9.60;;;4.85;;
82352;SDS011;71954;47.430;18.920;2024-03-23T10:54:25;7.38;;;4.35;;
82352;SDS011;71954;47.430;18.920;2024-03-23T10:56:53;7.20;;;3.95;;
82352;SDS011;71954;47.430;18.920;2024-03-23T10:59:24;7.10;;;3.63;;
82352;SDS011;71954;47.430;18.920;2024-03-23T11:01:55;8.70;;;3.95;;
82352;SDS011;71954;47.430;18.920;2024-03-23T11:04:32;7.70;;;3.47;;
82352;SDS011;71954;47.430;18.920;2024-03-23T11:12:31;7.75;;;3.67;;
82352;SDS011;71954;47.430;18.920;2024-03-23T11:15:04;7.45;;;3.55;;
82352;SDS011;71954;47.430;18.920;2024-03-23T11:17:36;8.05;;;3.35;;
82352;SDS011;71954;47.430;18.920;2024-03-23T11:20:02;8.50;;;3.88;;
82352;SDS011;71954;47.430;18.920;2024-03-23T11:22:43;5.20;;;3.13;;
82352;SDS011;71954;47.430;18.920;2024-03-23T11:27:37;12.32;;;3.85;;
82352;SDS011;71954;47.430;18.920;2024-03-23T11:30:12;5.63;;;2.95;;
82352;SDS011;71954;47.430;18.920;2024-03-23T11:32:47;9.02;;;3.90;;
82352;SDS011;71954;47.430;18.920;2024-03-23T11:35:30;6.55;;;3.28;;
82352;SDS011;71954;47.430;18.920;2024-03-23T11:40:28;6.60;;;2.92;;
82352;SDS011;71954;47.430;18.920;2024-03-23T11:43:04;7.15;;;3.92;;
82352;SDS011;71954;47.430;18.920;2024-03-23T11:45:35;7.25;;;2.88;;
82352;SDS011;71954;47.430;18.920;2024-03-23T11:48:05;8.85;;;3.58;;
82352;SDS011;71954;47.430;18.920;2024-03-23T11:50:34;6.72;;;3.38;;
82352;SDS011;71954;47.430;18.920;2024-03-23T11:53:06;6.80;;;3.20;;
82352;SDS011;71954;47.430;18.920;2024-03-23T11:55:42;6.40;;;4.03;;
82352;SDS011;71954;47.430;18.920;2024-03-23T11:58:20;6.05;;;2.83;;
82352;SDS011;71954;47.430;18.920;2024-03-23T12:00:57;7.53;;;3.58;;
82352;SDS011;71954;47.430;18.920;2024-03-23T12:03:27;6.57;;;3.42;;
82352;SDS011;71954;47.430;18.920;2024-03-23T12:05:59;6.05;;;3.13;;
82352;SDS011;71954;47.430;18.920;2024-03-23T12:08:33;6.18;;;2.67;;
82352;SDS011;71954;47.430;18.920;2024-03-23T12:11:16;6.03;;;2.92;;
82352;SDS011;71954;47.430;18.920;2024-03-23T12:13:43;5.40;;;2.75;;
82352;SDS011;71954;47.430;18.920;2024-03-23T12:16:11;4.45;;;2.38;;
82352;SDS011;71954;47.430;18.920;2024-03-23T12:18:49;5.00;;;2.47;;
82352;SDS011;71954;47.430;18.920;2024-03-23T12:21:18;5.03;;;2.47;;
82352;SDS011;71954;47.430;18.920;2024-03-23T12:23:44;4.10;;;2.08;;
82352;SDS011;71954;47.430;18.920;2024-03-23T12:26:12;5.07;;;2.33;;
82352;SDS011;71954;47.430;18.920;2024-03-23T12:28:38;5.65;;;2.25;;
82352;SDS011;71954;47.430;18.920;2024-03-23T12:31:04;4.47;;;2.55;;
82352;SDS011;71954;47.430;18.920;2024-03-23T12:33:30;5.15;;;2.90;;
82352;SDS011;71954;47.430;18.920;2024-03-23T12:35:56;5.10;;;2.38;;
82352;SDS011;71954;47.430;18.920;2024-03-23T12:38:22;4.82;;;2.45;;
82352;SDS011;71954;47.430;18.920;2024-03-23T12:40:48;6.60;;;2.33;;
82352;SDS011;71954;47.430;18.920;2024-03-23T12:43:17;5.45;;;2.83;;
82352;SDS011;71954;47.430;18.920;2024-03-23T12:45:47;5.22;;;2.25;;
82352;SDS011;71954;47.430;18.920;2024-03-23T12:48:13;5.50;;;2.40;;
82352;SDS011;71954;47.430;18.920;2024-03-23T12:50:38;4.85;;;2.97;;
82352;SDS011;71954;47.430;18.920;2024-03-23T12:53:04;5.05;;;2.90;;
82352;SDS011;71954;47.430;18.920;2024-03-23T12:55:29;6.20;;;2.30;;
82352;SDS011;71954;47.430;18.920;2024-03-23T12:57:55;4.57;;;3.13;;
82352;SDS011;71954;47.430;18.920;2024-03-23T13:00:21;4.22;;;2.40;;
82352;SDS011;71954;47.430;18.920;2024-03-23T13:02:47;4.78;;;3.17;;
82352;SDS011;71954;47.430;18.920;2024-03-23T13:05:13;5.53;;;2.40;;
82352;SDS011;71954;47.430;18.920;2024-03-23T13:07:39;6.05;;;2.40;;
82352;SDS011;71954;47.430;18.920;2024-03-23T13:10:05;3.97;;;2.40;;
82352;SDS011;71954;47.430;18.920;2024-03-23T13:14:58;4.07;;;2.50;;
82352;SDS011;71954;47.430;18.920;2024-03-23T13:19:52;3.80;;;2.05;;
82352;SDS011;71954;47.430;18.920;2024-03-23T13:22:18;4.40;;;2.42;;
82352;SDS011;71954;47.430;18.920;2024-03-23T13:24:43;4.40;;;2.80;;
82352;SDS011;71954;47.430;18.920;2024-03-23T13:27:10;4.20;;;3.00;;
82352;SDS011;71954;47.430;18.920;2024-03-23T13:29:36;4.95;;;1.77;;
82352;SDS011;71954;47.430;18.920;2024-03-23T13:34:28;3.75;;;1.85;;
82352;SDS011;71954;47.430;18.920;2024-03-23T13:36:55;5.07;;;2.83;;
82352;SDS011;71954;47.430;18.920;2024-03-23T13:39:23;4.15;;;2.47;;
82352;SDS011;71954;47.430;18.920;2024-03-23T13:41:49;6.15;;;2.83;;
82352;SDS011;71954;47.430;18.920;2024-03-23T13:44:14;4.32;;;2.10;;
82352;SDS011;71954;47.430;18.920;2024-03-23T13:46:41;7.90;;;2.60;;
82352;SDS011;71954;47.430;18.920;2024-03-23T13:49:28;42.28;;;27.25;;
82352;SDS011;71954;47.430;18.920;2024-03-23T13:51:56;4.53;;;2.60;;
82352;SDS011;71954;47.430;18.920;2024-03-23T13:54:23;7.25;;;2.33;;
82352;SDS011;71954;47.430;18.920;2024-03-23T13:56:53;3.78;;;2.35;;
82352;SDS011;71954;47.430;18.920;2024-03-23T13:59:22;4.50;;;2.00;;
82352;SDS011;71954;47.430;18.920;2024-03-23T14:01:48;5.15;;;2.03;;
82352;SDS011;71954;47.430;18.920;2024-03-23T14:04:15;3.65;;;2.03;;
82352;SDS011;71954;47.430;18.920;2024-03-23T14:06:45;6.47;;;3.10;;
82352;SDS011;71954;47.430;18.920;2024-03-23T14:09:11;5.82;;;2.35;;
82352;SDS011;71954;47.430;18.920;2024-03-23T14:11:37;3.90;;;2.45;;
82352;SDS011;71954;47.430;18.920;2024-03-23T14:14:03;3.67;;;2.00;;
82352;SDS011;71954;47.430;18.920;2024-03-23T14:16:30;5.75;;;2.05;;
82352;SDS011;71954;47.430;18.920;2024-03-23T14:21:21;4.80;;;2.13;;
82352;SDS011;71954;47.430;18.920;2024-03-23T14:23:47;4.05;;;2.13;;
82352;SDS011;71954;47.430;18.920;2024-03-23T14:26:12;3.25;;;1.70;;
82352;SDS011;71954;47.430;18.920;2024-03-23T14:28:38;4.32;;;2.08;;
82352;SDS011;71954;47.430;18.920;2024-03-23T14:31:04;3.13;;;1.30;;
82352;SDS011;71954;47.430;18.920;2024-03-23T14:33:38;5.22;;;1.77;;
82352;SDS011;71954;47.430;18.920;2024-03-23T14:36:15;5.03;;;2.10;;
82352;SDS011;71954;47.430;18.920;2024-03-23T14:38:46;4.35;;;1.90;;
82352;SDS011;71954;47.430;18.920;2024-03-23T14:41:12;6.07;;;2.67;;
82352;SDS011;71954;47.430;18.920;2024-03-23T14:43:38;3.85;;;2.03;;
82352;SDS011;71954;47.430;18.920;2024-03-23T14:46:11;4.90;;;2.17;;
82352;SDS011;71954;47.430;18.920;2024-03-23T14:48:44;4.88;;;2.90;;
82352;SDS011;71954;47.430;18.920;2024-03-23T14:51:11;46.30;;;23.90;;
82352;SDS011;71954;47.430;18.920;2024-03-23T14:53:40;7.85;;;2.90;;
82352;SDS011;71954;47.430;18.920;2024-03-23T14:56:07;5.18;;;2.25;;
82352;SDS011;71954;47.430;18.920;2024-03-23T14:58:33;3.55;;;2.13;;
82352;SDS011;71954;47.430;18.920;2024-03-23T15:01:02;5.25;;;3.28;;
82352;SDS011;71954;47.430;18.920;2024-03-23T15:03:28;4.70;;;2.78;;
82352;SDS011;71954;47.430;18.920;2024-03-23T15:08:20;5.07;;;2.83;;
82352;SDS011;71954;47.430;18.920;2024-03-23T15:10:46;4.72;;;2.47;;
82352;SDS011;71954;47.430;18.920;2024-03-23T15:13:12;6.05;;;2.60;;
82352;SDS011;71954;47.430;18.920;2024-03-23T15:15:41;5.05;;;3.13;;
82352;SDS011;71954;47.430;18.920;2024-03-23T15:18:12;5.78;;;2.53;;
82352;SDS011;71954;47.430;18.920;2024-03-23T15:20:39;5.13;;;2.90;;
82352;SDS011;71954;47.430;18.920;2024-03-23T15:23:04;6.05;;;2.40;;
82352;SDS011;71954;47.430;18.920;2024-03-23T15:25:30;6.53;;;3.13;;
82352;SDS011;71954;47.430;18.920;2024-03-23T15:30:23;6.97;;;2.65;;
82352;SDS011;71954;47.430;18.920;2024-03-23T15:32:49;6.47;;;2.60;;
82352;SDS011;71954;47.430;18.920;2024-03-23T15:35:15;5.13;;;3.08;;
82352;SDS011;71954;47.430;18.920;2024-03-23T15:37:40;72.95;;;43.47;;
82352;SDS011;71954;47.430;18.920;2024-03-23T15:40:06;37.15;;;22.02;;
82352;SDS011;71954;47.430;18.920;2024-03-23T15:42:32;7.88;;;3.42;;
82352;SDS011;71954;47.430;18.920;2024-03-23T15:44:58;5.53;;;2.58;;
82352;SDS011;71954;47.430;18.920;2024-03-23T15:47:24;7.72;;;3.65;;